Frank Wiley Field Miles City US
ICAO: KMLS
IATA: MLS
Category: Medium
Scheduled Services: Yes

Elevation: 2630 ft
TransAlt. 18000 ft.

Airport Communications:
ASOS:135.575
GREAT FALLS RDO:122.2
CTAF/UNICOM:123

KMLS Zoom In..

Runways:

(A) RW 04 length 5680 ft width 75 ft
---- / hdg 40

(B) RW 12 length 5628 ft width 100 ft
---- / hdg 123

(C) RW 22 length 5680 ft width 75 ft
---- / hdg 220

(D) RW 30 length 5628 ft width 100 ft
---- / hdg 303

Location; KMLS
Day. 09 / Time. 22.53 Zulu
* Altimeter: 29.94
* Temperature: 28° c. 82.4°f.
* Wind from: 090° Speed 05 kn.
Dewpoint: 07° c.
Visibility: 10 Statute Miles.
Clouds: Clear (automated report).

KMLS 092253Z AUTO 09005KT 10SM CLR 28/07 A2994 RMK AO2 SLP125 T02780072

Going to: --> -->


Wind From 090°
Speed 05 kn.

 
 
jpsmedia worldairports.se 2020   terms of use